Time;durP1;ratioP1;P1;durP2;ratioP2;P2;SDS_P1;SDS_P2;PMS_P1;PMS_P2;Temp;Humidity;BMP_temperature;BMP_pressure;BME280_temperature;BME280_humidity;BME280_pressure;Samples;Min_cycle;Max_cycle;Signal;HPM_P1;HPM_P2
2021/05/14 00:00:41;;;;;;;9.10;8.70;;;24.10;74.20;;;;;;3546892;40;20466;-50
2021/05/14 00:03:10;;;;;;;9.20;8.80;;;24.10;74.10;;;;;;3546249;40;20566;-49
2021/05/14 00:05:36;;;;;;;9.20;8.90;;;24.10;74.20;;;;;;3546830;40;20494;-49
2021/05/14 00:08:06;;;;;;;9.30;8.90;;;24.10;74.10;;;;;;3547800;40;20800;-49
2021/05/14 00:10:36;;;;;;;9.03;8.73;;;24.10;74.20;;;;;;3547540;40;20484;-49
2021/05/14 00:13:04;;;;;;;9.93;9.43;;;24.10;74.20;;;;;;3548140;40;20486;-49
2021/05/14 00:15:32;;;;;;;9.60;9.30;;;24.10;74.30;;;;;;3547268;40;20743;-49
2021/05/14 00:18:00;;;;;;;9.23;8.93;;;24.20;74.30;;;;;;3547595;40;20481;-51
2021/05/14 00:20:28;;;;;;;9.20;8.80;;;24.20;74.40;;;;;;3546975;40;20553;-49
2021/05/14 00:22:56;;;;;;;9.67;9.33;;;24.20;74.30;;;;;;3547316;40;20480;-50
2021/05/14 00:25:23;;;;;;;9.40;9.10;;;24.20;74.30;;;;;;3547453;40;20496;-52
2021/05/14 00:27:50;;;;;;;9.20;8.90;;;24.20;74.30;;;;;;3547282;40;20499;-49
2021/05/14 00:30:18;;;;;;;9.07;8.77;;;24.20;74.30;;;;;;3547653;40;20883;-49
2021/05/14 00:32:46;;;;;;;9.00;8.70;;;24.20;74.30;;;;;;3547574;40;20480;-50
2021/05/14 00:35:13;;;;;;;8.43;8.23;;;24.20;74.20;;;;;;3547164;40;20581;-51
2021/05/14 00:37:41;;;;;;;8.97;8.67;;;24.20;74.20;;;;;;3552574;40;20509;-49
2021/05/14 00:40:09;;;;;;;8.88;8.57;;;24.20;74.20;;;;;;3566651;40;20494;-49
2021/05/14 00:42:37;;;;;;;8.70;8.40;;;24.20;74.20;;;;;;3557437;40;20237;-49
2021/05/14 00:45:06;;;;;;;8.68;8.38;;;24.20;74.20;;;;;;3557273;40;20478;-49
2021/05/14 00:47:34;;;;;;;8.80;8.50;;;24.20;74.30;;;;;;3566471;40;20231;-50
2021/05/14 00:50:04;;;;;;;9.20;8.90;;;24.20;74.20;;;;;;3566105;40;20484;-50
2021/05/14 00:52:33;;;;;;;9.03;8.73;;;24.20;74.20;;;;;;3566142;40;20497;-52
2021/05/14 00:55:01;;;;;;;9.50;8.90;;;24.20;74.20;;;;;;3566112;40;20571;-52
2021/05/14 00:57:29;;;;;;;9.00;8.70;;;24.20;74.20;;;;;;3565073;40;20616;-49
2021/05/14 00:59:56;;;;;;;8.80;8.50;;;24.20;74.10;;;;;;3566850;40;20493;-49
2021/05/14 01:02:22;;;;;;;9.13;8.83;;;24.20;74.10;;;;;;3563406;40;20497;-49
2021/05/14 01:04:49;;;;;;;8.60;8.30;;;24.20;74.10;;;;;;3565755;40;20481;-49
2021/05/14 01:07:16;;;;;;;8.93;8.63;;;24.20;74.10;;;;;;3566951;40;20493;-50
2021/05/14 01:09:44;;;;;;;8.87;8.57;;;24.20;74.10;;;;;;3566528;40;20485;-49
2021/05/14 01:12:13;;;;;;;9.03;8.73;;;24.20;74.10;;;;;;3566286;40;20478;-49
2021/05/14 01:14:40;;;;;;;9.00;8.60;;;24.30;74.20;;;;;;3567435;40;20703;-50
2021/05/14 01:17:06;;;;;;;8.30;8.10;;;24.20;74.20;;;;;;3567532;40;20503;-50
2021/05/14 01:19:34;;;;;;;8.40;8.10;;;24.30;74.20;;;;;;3566221;40;20268;-50
2021/05/14 01:22:03;;;;;;;9.10;8.80;;;24.30;74.20;;;;;;3566507;40;20224;-49
2021/05/14 01:24:31;;;;;;;8.73;8.43;;;24.30;74.20;;;;;;3566503;40;20502;-50
2021/05/14 01:26:57;;;;;;;8.90;8.50;;;24.30;74.20;;;;;;3564325;40;20485;-49
2021/05/14 01:29:24;;;;;;;8.90;8.60;;;24.30;74.20;;;;;;3565892;40;20475;-49
2021/05/14 01:31:52;;;;;;;9.30;8.93;;;24.30;74.20;;;;;;3557152;40;20240;-49
2021/05/14 01:34:19;;;;;;;9.43;8.93;;;24.30;74.20;;;;;;3566213;40;20935;-49
2021/05/14 01:36:47;;;;;;;8.90;8.60;;;24.30;74.20;;;;;;3565676;40;21228;-49
2021/05/14 01:39:22;;;;;;;8.70;8.40;;;24.30;74.20;;;;;;3566213;40;20491;-50
2021/05/14 01:41:49;;;;;;;9.07;8.77;;;24.30;74.20;;;;;;3566795;40;20948;-49
2021/05/14 01:44:16;;;;;;;8.80;8.40;;;24.30;74.20;;;;;;3566723;40;20482;-50
2021/05/14 01:46:44;;;;;;;8.60;8.37;;;24.30;74.10;;;;;;3566965;40;20478;-49
2021/05/14 01:49:10;;;;;;;8.80;8.50;;;24.30;74.20;;;;;;3566954;40;20746;-49
2021/05/14 01:51:38;;;;;;;8.80;8.50;;;24.30;74.20;;;;;;3566946;40;20489;-49
2021/05/14 01:54:06;;;;;;;9.20;8.90;;;24.30;74.10;;;;;;3565947;40;20513;-50
2021/05/14 01:56:35;;;;;;;8.70;8.43;;;24.30;74.10;;;;;;3557257;40;20494;-49
2021/05/14 01:59:04;;;;;;;8.80;8.50;;;24.30;74.10;;;;;;3565600;40;20522;-50
2021/05/14 02:01:31;;;;;;;8.77;8.47;;;24.30;74.20;;;;;;3566999;40;20482;-49
2021/05/14 02:03:58;;;;;;;8.43;8.23;;;24.30;74.20;;;;;;3567009;40;20485;-49
2021/05/14 02:06:25;;;;;;;8.80;8.40;;;24.30;74.10;;;;;;3565963;40;21107;-50
2021/05/14 02:08:53;;;;;;;8.77;8.47;;;24.30;74.10;;;;;;3566376;40;20493;-49
2021/05/14 02:11:21;;;;;;;9.10;8.70;;;24.30;74.10;;;;;;3566569;40;20477;-49
2021/05/14 02:13:49;;;;;;;8.40;8.10;;;24.40;74.20;;;;;;3566763;40;20568;-49
2021/05/14 02:16:16;;;;;;;8.77;8.47;;;24.40;74.20;;;;;;3568019;40;20473;-50
2021/05/14 02:18:44;;;;;;;8.33;8.10;;;24.40;74.30;;;;;;3568307;40;20477;-49
2021/05/14 02:21:12;;;;;;;8.10;7.90;;;24.40;74.20;;;;;;3568187;40;20471;-49
2021/05/14 02:23:39;;;;;;;7.90;7.70;;;24.40;74.20;;;;;;3568740;40;20490;-50
2021/05/14 02:26:07;;;;;;;8.30;8.00;;;24.40;74.20;;;;;;3567278;40;20485;-50
2021/05/14 02:28:35;;;;;;;8.40;8.10;;;24.40;74.20;;;;;;3567181;40;20866;-53
2021/05/14 02:31:07;;;;;;;8.00;7.70;;;24.40;74.20;;;;;;3558586;40;20474;-50
2021/05/14 02:33:34;;;;;;;8.10;7.80;;;24.40;74.20;;;;;;3567031;40;20611;-50
2021/05/14 02:36:00;;;;;;;8.73;8.43;;;24.40;74.20;;;;;;3566604;40;20483;-49
2021/05/14 02:38:28;;;;;;;8.60;8.30;;;24.40;74.20;;;;;;3567936;40;20501;-51
2021/05/14 02:40:55;;;;;;;8.53;8.23;;;24.40;74.10;;;;;;3558717;40;20486;-49
2021/05/14 02:43:23;;;;;;;8.40;8.10;;;24.40;74.80;;;;;;3567437;40;20547;-50
2021/05/14 02:45:50;;;;;;;8.90;8.60;;;24.40;74.20;;;;;;3567002;40;20487;-49
2021/05/14 02:48:20;;;;;;;8.80;8.50;;;24.40;74.10;;;;;;3567196;40;20572;-49
2021/05/14 02:50:48;;;;;;;8.90;8.60;;;24.40;74.10;;;;;;3559426;40;20495;-49
2021/05/14 02:53:15;;;;;;;9.00;8.70;;;24.40;74.20;;;;;;3567278;40;20993;-51
2021/05/14 02:55:42;;;;;;;9.00;8.70;;;24.40;74.10;;;;;;3566847;40;20479;-49
2021/05/14 02:58:10;;;;;;;8.53;8.33;;;24.40;74.10;;;;;;3565416;40;20872;-50
2021/05/14 03:00:37;;;;;;;8.77;8.40;;;24.40;74.10;;;;;;3566695;40;20495;-50
2021/05/14 03:03:04;;;;;;;8.80;8.40;;;24.40;74.10;;;;;;3566312;40;20240;-52
2021/05/14 03:05:33;;;;;;;8.70;8.40;;;24.40;74.10;;;;;;3567446;40;20528;-54
2021/05/14 03:08:02;;;;;;;9.43;9.13;;;24.40;74.00;;;;;;3566403;40;20493;-49
2021/05/14 03:10:29;;;;;;;8.60;8.30;;;24.40;74.10;;;;;;3566816;40;20346;-51
2021/05/14 03:12:58;;;;;;;8.93;8.63;;;24.40;74.00;;;;;;3567471;40;20463;-51
2021/05/14 03:15:26;;;;;;;8.73;8.43;;;24.40;74.00;;;;;;3566242;40;20888;-49
2021/05/14 03:17:53;;;;;;;8.80;8.50;;;24.50;74.10;;;;;;3565662;40;20486;-49
2021/05/14 03:20:20;;;;;;;9.20;8.90;;;24.40;73.90;;;;;;3566911;40;20477;-50
2021/05/14 03:22:48;;;;;;;8.77;8.57;;;24.50;74.00;;;;;;3566670;40;20858;-50
2021/05/14 03:25:16;;;;;;;9.40;9.10;;;24.50;74.10;;;;;;3567725;40;20496;-49
2021/05/14 03:27:44;;;;;;;8.90;8.60;;;24.50;74.10;;;;;;3566094;40;20506;-49
2021/05/14 03:30:13;;;;;;;9.30;9.00;;;24.50;74.10;;;;;;3567358;40;20843;-50
2021/05/14 03:32:40;;;;;;;9.40;9.10;;;24.50;74.00;;;;;;3565997;40;20496;-52
2021/05/14 03:35:08;;;;;;;9.03;8.83;;;24.50;74.00;;;;;;3566293;40;20483;-49
2021/05/14 03:37:35;;;;;;;9.23;8.93;;;24.50;74.00;;;;;;3566584;40;20559;-49
2021/05/14 03:40:15;;;;;;;9.47;9.17;;;24.50;74.00;;;;;;3566413;40;20505;-50
2021/05/14 03:42:43;;;;;;;9.50;9.20;;;24.50;73.90;;;;;;3566189;40;20505;-49
2021/05/14 03:45:12;;;;;;;8.63;8.43;;;24.50;73.90;;;;;;3566764;40;20482;-50
2021/05/14 03:47:39;;;;;;;10.30;9.87;;;24.50;73.90;;;;;;3557253;40;20899;-51
2021/05/14 03:50:08;;;;;;;9.67;9.37;;;24.60;73.90;;;;;;3567005;40;20820;-50
2021/05/14 03:52:36;;;;;;;9.80;9.40;;;24.60;74.00;;;;;;3565373;40;20567;-50
2021/05/14 03:55:08;;;;;;;9.73;9.33;;;24.60;73.90;;;;;;3564921;40;20504;-49
2021/05/14 03:57:35;;;;;;;9.70;9.40;;;24.60;73.90;;;;;;3563859;40;20813;-49
2021/05/14 04:00:04;;;;;;;8.97;8.77;;;24.60;73.90;;;;;;3565565;40;20491;-49
2021/05/14 04:02:32;;;;;;;10.00;9.70;;;24.60;73.80;;;;;;3553211;40;20832;-49
2021/05/14 04:05:00;;;;;;;9.83;9.53;;;24.60;73.80;;;;;;3555314;40;20884;-49
2021/05/14 04:07:28;;;;;;;10.03;9.73;;;24.60;73.80;;;;;;3554537;40;20491;-52
2021/05/14 04:10:04;;;;;;;10.53;10.13;;;24.60;73.80;;;;;;3554737;40;20479;-49
2021/05/14 04:15:22;;;;;;;10.63;10.23;;;24.70;73.80;;;;;;3555720;40;20499;-49
2021/05/14 04:17:50;;;;;;;10.45;10.15;;;24.70;73.80;;;;;;3553951;40;20229;-51
2021/05/14 04:20:17;;;;;;;10.57;10.20;;;24.70;73.80;;;;;;3554877;40;20240;-51
2021/05/14 04:22:44;;;;;;;10.30;10.00;;;24.70;73.70;;;;;;3556451;40;20480;-49
2021/05/14 04:25:12;;;;;;;10.38;10.07;;;24.70;73.70;;;;;;3555279;40;20491;-49
2021/05/14 04:27:41;;;;;;;10.83;10.43;;;24.70;73.70;;;;;;3553572;40;20228;-49
2021/05/14 04:30:10;;;;;;;10.70;10.40;;;24.80;73.70;;;;;;3554177;40;20525;-49
2021/05/14 04:32:38;;;;;;;10.50;10.10;;;24.80;73.70;;;;;;3555751;40;20513;-50
2021/05/14 04:35:07;;;;;;;10.60;10.30;;;24.80;73.60;;;;;;3555411;40;20463;-50
2021/05/14 04:37:37;;;;;;;10.63;10.33;;;24.80;73.60;;;;;;3555009;40;21247;-51
2021/05/14 04:40:05;;;;;;;10.60;10.30;;;24.80;73.60;;;;;;3556229;40;20791;-49
2021/05/14 04:42:33;;;;;;;10.17;9.87;;;24.80;73.60;;;;;;3555350;40;20729;-50
2021/05/14 04:45:02;;;;;;;10.80;10.50;;;24.80;73.60;;;;;;3555006;40;20828;-50
2021/05/14 04:47:31;;;;;;;10.27;9.88;;;24.80;73.60;;;;;;3552944;40;20529;-50
2021/05/14 04:49:59;;;;;;;10.90;10.60;;;24.80;73.60;;;;;;3555153;40;20808;-49
2021/05/14 04:52:29;;;;;;;10.60;10.30;;;24.80;73.60;;;;;;3554652;40;20492;-50
2021/05/14 04:54:57;;;;;;;10.43;10.03;;;24.80;73.50;;;;;;3553850;40;20528;-49
2021/05/14 04:57:24;;;;;;;10.90;10.60;;;24.80;73.50;;;;;;3552822;40;20493;-50
2021/05/14 04:59:54;;;;;;;10.47;10.17;;;24.80;73.50;;;;;;3554930;40;20732;-49
2021/05/14 05:02:21;;;;;;;10.53;10.13;;;24.80;73.50;;;;;;3556369;40;20581;-49
2021/05/14 05:04:49;;;;;;;10.30;10.00;;;24.80;73.40;;;;;;3562485;40;20577;-49
2021/05/14 05:07:16;;;;;;;10.20;9.90;;;24.80;73.40;;;;;;3563053;40;20485;-50
2021/05/14 05:09:43;;;;;;;10.10;9.80;;;24.80;73.40;;;;;;3562029;40;20593;-53
2021/05/14 05:12:12;;;;;;;10.20;9.90;;;24.80;73.50;;;;;;3554195;40;20256;-49
2021/05/14 05:14:40;;;;;;;10.98;10.68;;;24.80;73.50;;;;;;3551991;40;20490;-49
2021/05/14 05:17:07;;;;;;;10.10;9.80;;;24.80;73.50;;;;;;3542158;40;20232;-51
2021/05/14 05:19:36;;;;;;;10.00;9.70;;;24.80;73.50;;;;;;3551572;40;20489;-49
2021/05/14 05:22:04;;;;;;;11.20;10.80;;;24.80;73.50;;;;;;3552007;40;20509;-50
2021/05/14 05:24:31;;;;;;;10.27;9.97;;;24.80;73.50;;;;;;3551753;40;20994;-50
2021/05/14 05:26:58;;;;;;;10.55;10.25;;;24.80;73.60;;;;;;3551963;40;20503;-49
2021/05/14 05:29:25;;;;;;;9.50;9.30;;;24.80;73.60;;;;;;3551715;40;20712;-50
2021/05/14 05:31:53;;;;;;;10.17;9.83;;;24.80;73.60;;;;;;3549307;40;20502;-50
2021/05/14 05:34:21;;;;;;;10.00;9.60;;;24.80;73.60;;;;;;3548743;40;20503;-49
2021/05/14 05:36:51;;;;;;;10.50;10.10;;;24.80;73.60;;;;;;3547141;40;20480;-50
2021/05/14 05:39:19;;;;;;;10.00;9.70;;;24.80;73.60;;;;;;3548902;40;21075;-50
2021/05/14 05:41:46;;;;;;;10.47;10.17;;;24.80;73.60;;;;;;3549304;40;20472;-50
2021/05/14 05:44:14;;;;;;;10.30;10.00;;;24.80;73.60;;;;;;3548404;40;20487;-51
2021/05/14 05:46:41;;;;;;;9.97;9.67;;;24.80;73.60;;;;;;3547957;40;20878;-49
2021/05/14 05:49:09;;;;;;;9.73;9.47;;;24.80;73.70;;;;;;3539819;40;20484;-50
2021/05/14 05:51:37;;;;;;;9.93;9.63;;;24.80;73.70;;;;;;3549624;40;20490;-49
2021/05/14 05:54:08;;;;;;;10.37;10.07;;;24.80;73.70;;;;;;3548338;40;20491;-50
2021/05/14 05:56:34;;;;;;;9.60;9.30;;;24.80;73.70;;;;;;3549256;40;20484;-49
2021/05/14 05:59:06;;;;;;;10.23;9.93;;;24.80;73.80;;;;;;3534640;40;579515;-49
2021/05/14 06:01:33;;;;;;;9.90;9.60;;;24.80;73.80;;;;;;3557498;40;20530;-49
2021/05/14 06:04:01;;;;;;;9.52;9.23;;;24.80;74.60;;;;;;3555038;40;20251;-49
2021/05/14 06:06:29;;;;;;;9.50;9.20;;;24.80;73.90;;;;;;3545752;40;20238;-49
2021/05/14 06:08:59;;;;;;;9.50;9.20;;;24.80;73.90;;;;;;3553511;40;20578;-49
2021/05/14 06:11:29;;;;;;;9.93;9.63;;;24.80;73.80;;;;;;3555917;40;21275;-49
2021/05/14 06:13:55;;;;;;;9.43;9.13;;;24.80;73.90;;;;;;3548457;40;20733;-51
2021/05/14 06:16:22;;;;;;;9.20;9.00;;;24.80;73.80;;;;;;3553507;40;20490;-50
2021/05/14 06:18:55;;;;;;;9.60;9.30;;;24.80;73.90;;;;;;3556145;40;20704;-50
2021/05/14 06:21:25;;;;;;;9.70;9.40;;;24.80;73.90;;;;;;3554816;40;20712;-50
2021/05/14 06:23:51;;;;;;;9.27;8.97;;;24.80;73.90;;;;;;3548772;40;21046;-50
2021/05/14 06:26:18;;;;;;;9.38;9.07;;;24.80;73.90;;;;;;3544600;40;20491;-50
2021/05/14 06:28:47;;;;;;;9.43;9.10;;;24.80;74.00;;;;;;3544825;40;20240;-49
2021/05/14 06:31:14;;;;;;;9.60;9.27;;;24.80;74.00;;;;;;3543749;40;20517;-49
2021/05/14 06:33:42;;;;;;;9.70;9.40;;;24.80;74.00;;;;;;3543938;40;20546;-49
2021/05/14 06:36:11;;;;;;;9.50;9.20;;;24.80;74.00;;;;;;3537978;40;20817;-52
2021/05/14 06:38:38;;;;;;;9.83;9.53;;;24.80;74.10;;;;;;3546587;40;20740;-49
2021/05/14 06:41:05;;;;;;;9.97;9.67;;;24.80;74.20;;;;;;3544984;40;21167;-49
2021/05/14 06:43:32;;;;;;;9.63;9.33;;;24.80;74.20;;;;;;3546068;40;20671;-51
2021/05/14 06:46:01;;;;;;;10.20;9.90;;;24.80;74.30;;;;;;3547133;40;20501;-49
2021/05/14 06:48:28;;;;;;;10.27;9.97;;;24.70;74.30;;;;;;3546067;40;21055;-51
2021/05/14 06:50:56;;;;;;;9.93;9.60;;;24.70;67.50;;;;;;3536940;40;20483;-50
2021/05/14 06:53:27;;;;;;;10.40;9.90;;;24.60;63.90;;;;;;3544522;40;20497;-49
2021/05/14 06:55:54;;;;;;;9.87;9.47;;;24.40;61.80;;;;;;3543405;40;20479;-49
2021/05/14 06:58:21;;;;;;;9.60;9.30;;;24.20;61.00;;;;;;3534751;40;20583;-50
2021/05/14 07:00:49;;;;;;;10.50;10.10;;;24.00;59.80;;;;;;3544914;40;20992;-48
2021/05/14 07:03:17;;;;;;;9.87;9.50;;;23.90;60.10;;;;;;3536149;40;20501;-49
2021/05/14 07:05:45;;;;;;;10.47;10.07;;;23.70;60.60;;;;;;3535812;40;20481;-51
2021/05/14 07:08:11;;;;;;;10.40;9.90;;;23.60;60.70;;;;;;3544014;40;20586;-49
2021/05/14 07:10:40;;;;;;;10.30;10.00;;;23.50;59.70;;;;;;3545967;40;20494;-54
2021/05/14 07:13:06;;;;;;;10.13;9.83;;;23.40;60.00;;;;;;3555744;40;20495;-53
2021/05/14 07:15:34;;;;;;;10.27;9.80;;;23.30;59.80;;;;;;3555690;40;20480;-51
2021/05/14 07:18:03;;;;;;;10.63;10.30;;;23.20;60.20;;;;;;3554594;40;20502;-51
2021/05/14 07:20:33;;;;;;;10.00;9.70;;;23.20;60.40;;;;;;3537199;40;20476;-50
2021/05/14 07:23:01;;;;;;;10.60;10.30;;;23.20;60.10;;;;;;3553141;40;20576;-50
2021/05/14 07:25:28;;;;;;;10.33;10.03;;;23.10;60.90;;;;;;3554082;40;20487;-53
2021/05/14 07:27:55;;;;;;;10.23;9.83;;;23.10;60.60;;;;;;3555943;40;20538;-54
2021/05/14 07:30:22;;;;;;;10.33;9.97;;;23.10;60.80;;;;;;3552876;40;20485;-53
2021/05/14 07:32:49;;;;;;;9.80;9.40;;;23.10;60.80;;;;;;3544905;40;20957;-55
2021/05/14 07:35:15;;;;;;;10.10;9.70;;;23.00;60.10;;;;;;3552543;40;20629;-53
2021/05/14 07:37:43;;;;;;;10.23;9.77;;;23.00;59.60;;;;;;3554574;40;20241;-55
2021/05/14 07:40:14;;;;;;;9.77;9.47;;;22.90;59.60;;;;;;3555916;40;20485;-53
2021/05/14 07:42:41;;;;;;;9.97;9.67;;;22.90;59.80;;;;;;3553923;40;20475;-52
2021/05/14 07:45:10;;;;;;;9.83;9.53;;;22.90;59.90;;;;;;3551841;40;20479;-52
2021/05/14 07:47:38;;;;;;;10.00;9.70;;;23.00;59.80;;;;;;3555997;40;20488;-54
2021/05/14 07:50:06;;;;;;;10.37;9.77;;;22.90;59.60;;;;;;3553112;40;20497;-55
2021/05/14 07:52:34;;;;;;;10.10;9.80;;;23.00;59.20;;;;;;3554179;40;20487;-55
2021/05/14 07:55:02;;;;;;;9.73;9.43;;;23.00;59.50;;;;;;3554128;40;20580;-54
2021/05/14 07:57:29;;;;;;;9.90;9.60;;;23.00;59.60;;;;;;3552178;40;20499;-55
2021/05/14 07:59:56;;;;;;;9.40;9.13;;;23.10;60.00;;;;;;3551340;40;20594;-54
2021/05/14 08:02:23;;;;;;;10.20;9.90;;;23.10;58.30;;;;;;3551468;40;20545;-51
2021/05/14 08:04:51;;;;;;;10.50;10.20;;;23.10;58.40;;;;;;3553806;40;20725;-54
2021/05/14 08:07:19;;;;;;;10.00;9.70;;;23.10;58.60;;;;;;3553534;40;20487;-55
2021/05/14 08:09:47;;;;;;;10.27;9.97;;;23.20;58.80;;;;;;3549535;40;20482;-55
2021/05/14 08:12:14;;;;;;;10.03;9.73;;;23.20;58.40;;;;;;3548164;40;20506;-52
2021/05/14 08:14:41;;;;;;;10.83;10.53;;;23.20;58.40;;;;;;3547356;40;20486;-51
2021/05/14 08:17:08;;;;;;;9.63;9.30;;;23.20;58.10;;;;;;3551264;40;20964;-53
2021/05/14 08:19:36;;;;;;;10.47;9.97;;;23.10;57.80;;;;;;3552787;40;20222;-54
2021/05/14 08:22:03;;;;;;;9.93;9.63;;;23.10;57.90;;;;;;3555039;40;20475;-53
2021/05/14 08:24:31;;;;;;;9.57;9.17;;;23.20;58.30;;;;;;3553944;40;20614;-53
2021/05/14 08:26:58;;;;;;;10.17;9.37;;;23.20;58.40;;;;;;3553428;40;20488;-52
2021/05/14 08:29:27;;;;;;;8.75;8.45;;;23.20;57.70;;;;;;3545412;40;20860;-53
2021/05/14 08:31:54;;;;;;;9.77;9.47;;;23.20;57.60;;;;;;3549177;40;20605;-51
2021/05/14 08:34:22;;;;;;;9.20;8.93;;;23.30;58.20;;;;;;3554326;40;20490;-53
2021/05/14 08:36:49;;;;;;;11.10;10.60;;;23.40;58.20;;;;;;3554214;40;21264;-55
2021/05/14 08:39:18;;;;;;;10.40;10.00;;;23.50;58.60;;;;;;3552336;40;20644;-56
2021/05/14 08:41:45;;;;;;;10.87;10.07;;;23.50;59.50;;;;;;3553090;40;20477;-55
2021/05/14 08:44:13;;;;;;;9.80;9.50;;;23.60;61.20;;;;;;3553263;40;20507;-55
2021/05/14 08:46:47;;;;;;;10.83;10.50;;;23.70;61.80;;;;;;3553198;40;20894;-53
2021/05/14 08:49:16;;;;;;;9.53;9.23;;;23.80;62.40;;;;;;3539383;40;20484;-56
2021/05/14 08:51:44;;;;;;;9.73;9.23;;;23.90;62.80;;;;;;3552228;40;20485;-56
2021/05/14 08:54:11;;;;;;;10.20;9.70;;;24.00;63.10;;;;;;3552480;40;20793;-56
2021/05/14 08:56:39;;;;;;;10.43;9.70;;;24.00;63.30;;;;;;3550029;40;20507;-58
2021/05/14 08:59:06;;;;;;;9.98;9.60;;;24.10;63.50;;;;;;3551179;40;21139;-59
2021/05/14 09:01:37;;;;;;;10.40;10.00;;;24.20;63.80;;;;;;3550681;40;20595;-57
2021/05/14 09:04:09;;;;;;;10.85;9.90;;;24.20;63.90;;;;;;3547379;40;20502;-57
2021/05/14 09:06:39;;;;;;;10.27;9.90;;;24.30;64.10;;;;;;3548766;40;20336;-58
2021/05/14 09:09:09;;;;;;;10.47;9.90;;;24.30;64.20;;;;;;3550881;40;20486;-58
2021/05/14 09:11:40;;;;;;;10.70;10.30;;;24.30;64.30;;;;;;3551976;40;20495;-57
2021/05/14 09:14:33;;;;;;;10.48;10.13;;;24.40;64.60;;;;;;3547749;40;20626;-58
2021/05/14 09:17:08;;;;;;;10.60;10.30;;;24.40;64.70;;;;;;3550111;40;20224;-58
2021/05/14 09:19:37;;;;;;;11.13;10.63;;;24.40;64.70;;;;;;3550013;40;20489;-57
2021/05/14 09:22:14;;;;;;;10.30;10.00;;;24.40;64.80;;;;;;3546836;40;20690;-58
2021/05/14 09:24:43;;;;;;;10.10;9.70;;;24.30;58.50;;;;;;3538037;40;21072;-58
2021/05/14 09:27:27;;;;;;;10.15;9.85;;;24.20;59.30;;;;;;3550724;40;21077;-58
2021/05/14 09:29:57;;;;;;;10.20;9.80;;;24.20;61.90;;;;;;3543202;40;20229;-57
2021/05/14 09:32:26;;;;;;;10.70;10.30;;;24.30;63.10;;;;;;3528090;40;20527;-57
2021/05/14 09:34:55;;;;;;;10.67;10.07;;;24.40;63.90;;;;;;3531933;40;20814;-57
2021/05/14 09:37:24;;;;;;;10.23;9.83;;;24.40;64.20;;;;;;3542654;40;20499;-57
2021/05/14 09:40:11;;;;;;;10.53;10.23;;;24.40;64.50;;;;;;3540571;40;20470;-57
2021/05/14 09:42:37;;;;;;;11.17;10.67;;;24.40;64.80;;;;;;3538775;40;21194;-58
2021/05/14 09:45:19;;;;;;;9.90;9.60;;;24.50;65.00;;;;;;3538453;40;20870;-56
2021/05/14 09:47:59;;;;;;;14.43;10.20;;;24.50;65.20;;;;;;3540456;40;20486;-57
2021/05/14 09:50:32;;;;;;;9.83;9.33;;;24.50;65.30;;;;;;3540029;40;20535;-57
2021/05/14 09:53:08;;;;;;;10.10;9.23;;;24.50;65.30;;;;;;3541282;40;20482;-55
2021/05/14 09:55:37;;;;;;;10.07;9.57;;;24.50;65.50;;;;;;3531071;40;20482;-54
2021/05/14 09:58:17;;;;;;;9.40;9.00;;;24.50;65.70;;;;;;3539914;40;20490;-53
2021/05/14 10:00:45;;;;;;;9.50;9.10;;;24.50;65.90;;;;;;3537438;40;20593;-57
2021/05/14 10:03:16;;;;;;;10.93;10.27;;;24.50;66.00;;;;;;3541642;40;20489;-57
2021/05/14 10:05:44;;;;;;;10.03;9.73;;;24.50;66.00;;;;;;3540623;40;20679;-57
2021/05/14 10:08:15;;;;;;;11.17;10.50;;;24.50;66.10;;;;;;3539324;40;21181;-56
2021/05/14 10:10:43;;;;;;;11.17;10.53;;;24.50;66.30;;;;;;3540058;40;20483;-56
2021/05/14 10:13:11;;;;;;;10.50;10.00;;;24.50;66.40;;;;;;3539778;40;20493;-54
2021/05/14 10:15:38;;;;;;;10.50;9.97;;;24.60;66.60;;;;;;3538892;40;21148;-57
2021/05/14 10:18:07;;;;;;;10.80;10.30;;;24.60;66.80;;;;;;3541487;40;20481;-55
2021/05/14 10:20:36;;;;;;;11.33;10.63;;;24.50;66.80;;;;;;3538962;40;20921;-56
2021/05/14 10:23:06;;;;;;;10.27;9.50;;;24.60;66.90;;;;;;3538651;40;20896;-58
2021/05/14 10:25:44;;;;;;;10.60;9.80;;;24.60;67.00;;;;;;3537193;40;21402;-57
2021/05/14 10:28:13;;;;;;;11.50;10.90;;;24.60;67.20;;;;;;3538739;40;20864;-57
2021/05/14 10:31:17;;;;;;;11.13;10.43;;;24.60;67.30;;;;;;3540698;40;20821;-57
2021/05/14 10:33:48;;;;;;;10.30;9.80;;;24.60;67.50;;;;;;3540540;40;20498;-57
2021/05/14 10:36:43;;;;;;;10.82;10.23;;;24.60;67.50;;;;;;3543204;40;20487;-56
2021/05/14 10:39:15;;;;;;;10.80;10.10;;;24.60;67.70;;;;;;3541473;40;20243;-57
2021/05/14 10:41:52;;;;;;;11.33;10.67;;;24.60;67.70;;;;;;3544536;40;20893;-58
2021/05/14 10:44:49;;;;;;;10.83;9.87;;;24.60;68.00;;;;;;3540969;40;20485;-58
2021/05/14 10:47:47;;;;;;;9.70;9.30;;;24.60;68.20;;;;;;3543548;40;20554;-57
2021/05/14 10:50:42;;;;;;;9.30;8.90;;;24.60;68.30;;;;;;3543191;40;21163;-58
2021/05/14 10:53:27;;;;;;;9.50;9.10;;;24.60;68.40;;;;;;3510005;40;20523;-58
2021/05/14 10:55:56;;;;;;;10.20;9.60;;;24.60;68.40;;;;;;3510107;40;20698;-54
2021/05/14 10:58:46;;;;;;;11.00;10.50;;;24.60;68.50;;;;;;3507236;40;20505;-58
2021/05/14 11:01:43;;;;;;;10.60;9.90;;;24.60;68.70;;;;;;3512397;40;20537;-57
2021/05/14 11:04:45;;;;;;;12.87;11.70;;;24.60;68.70;;;;;;3508872;40;20502;-58
2021/05/14 11:07:35;;;;;;;11.80;10.80;;;24.60;68.80;;;;;;3543050;40;20506;-57
2021/05/14 11:10:26;;;;;;;11.07;10.17;;;24.60;68.80;;;;;;3552221;40;20808;-57
2021/05/14 11:12:54;;;;;;;11.07;10.33;;;24.60;69.80;;;;;;3549029;40;20485;-58
2021/05/14 11:15:36;;;;;;;12.07;11.20;;;24.60;69.10;;;;;;3553584;40;20578;-58
2021/05/14 11:18:25;;;;;;;10.40;9.87;;;24.60;69.40;;;;;;3554839;40;20484;-58
2021/05/14 11:20:55;;;;;;;12.10;10.80;;;24.60;69.60;;;;;;3552900;40;20480;-58
2021/05/14 11:23:34;;;;;;;10.80;10.00;;;24.60;69.80;;;;;;3554920;40;20690;-58
2021/05/14 11:26:03;;;;;;;10.77;9.87;;;24.70;70.10;;;;;;3545078;40;20714;-57
2021/05/14 11:28:43;;;;;;;11.82;10.63;;;24.70;70.20;;;;;;3552038;40;20499;-58
2021/05/14 11:31:15;;;;;;;10.43;9.50;;;24.70;70.30;;;;;;3554557;40;20261;-56
2021/05/14 11:33:47;;;;;;;10.00;9.20;;;24.70;70.30;;;;;;3553864;40;21182;-58
2021/05/14 11:36:15;;;;;;;11.30;10.13;;;24.70;70.30;;;;;;3553310;40;21129;-58
2021/05/14 11:38:48;;;;;;;10.40;9.70;;;24.70;70.30;;;;;;3546946;40;20485;-58
2021/05/14 11:41:16;;;;;;;10.07;9.48;;;24.60;70.20;;;;;;3552221;40;20836;-57
2021/05/14 11:43:55;;;;;;;10.30;9.50;;;24.70;70.30;;;;;;3545408;40;20223;-57
2021/05/14 11:46:27;;;;;;;9.87;9.07;;;24.70;70.40;;;;;;3554443;40;20785;-57
2021/05/14 11:48:54;;;;;;;10.00;9.50;;;24.70;70.40;;;;;;3554244;40;20484;-57
2021/05/14 11:51:21;;;;;;;9.40;8.80;;;24.60;70.30;;;;;;3555099;40;20224;-57
2021/05/14 11:53:49;;;;;;;10.40;9.55;;;24.70;70.30;;;;;;3555197;40;20494;-58
2021/05/14 11:56:16;;;;;;;9.73;8.90;;;24.70;70.40;;;;;;3552218;40;20654;-58
2021/05/14 11:58:43;;;;;;;9.27;8.57;;;24.70;70.30;;;;;;3553444;40;20490;-57
2021/05/14 12:01:12;;;;;;;11.67;10.50;;;24.70;70.30;;;;;;3555489;40;20492;-58
2021/05/14 12:03:41;;;;;;;10.00;9.20;;;24.70;70.30;;;;;;3555142;40;20566;-57
2021/05/14 12:06:10;;;;;;;9.13;8.73;;;24.70;70.30;;;;;;3556437;40;21189;-57
2021/05/14 12:08:37;;;;;;;9.93;9.33;;;24.60;70.20;;;;;;3555797;40;20771;-58
2021/05/14 12:11:10;;;;;;;10.10;9.60;;;24.60;70.20;;;;;;3556380;40;20572;-57
2021/05/14 12:13:40;;;;;;;10.37;9.60;;;24.60;70.20;;;;;;3557379;40;20771;-57
2021/05/14 12:16:09;;;;;;;10.07;9.50;;;24.60;70.20;;;;;;3558652;40;20501;-55
2021/05/14 12:18:39;;;;;;;10.20;9.70;;;24.60;70.20;;;;;;3549763;40;20533;-57
2021/05/14 12:21:11;;;;;;;10.30;9.70;;;24.60;70.20;;;;;;3548369;40;20501;-58
2021/05/14 12:23:39;;;;;;;11.05;10.25;;;24.60;70.20;;;;;;3557298;40;20483;-58
2021/05/14 12:26:07;;;;;;;10.37;9.87;;;24.60;70.30;;;;;;3557651;40;20309;-57
2021/05/14 12:28:41;;;;;;;10.33;9.50;;;24.60;70.20;;;;;;3556154;40;20586;-58
2021/05/14 12:31:10;;;;;;;10.03;9.50;;;24.60;70.20;;;;;;3557340;40;20974;-58
2021/05/14 12:33:50;;;;;;;9.43;9.13;;;24.60;70.10;;;;;;3556759;40;20466;-56
2021/05/14 12:36:24;;;;;;;9.57;9.00;;;24.60;70.10;;;;;;3559240;40;20479;-57
2021/05/14 12:38:51;;;;;;;13.20;9.57;;;24.60;70.10;;;;;;3559387;40;20904;-57
2021/05/14 12:41:26;;;;;;;9.37;8.80;;;24.60;70.10;;;;;;3559398;40;20530;-58
2021/05/14 12:44:16;;;;;;;9.77;9.00;;;24.60;70.10;;;;;;3558148;40;20536;-57
2021/05/14 12:47:05;;;;;;;10.33;9.50;;;24.60;70.10;;;;;;3558118;40;20552;-58
2021/05/14 12:49:35;;;;;;;9.77;9.10;;;24.60;70.00;;;;;;3559636;40;20707;-57
2021/05/14 12:52:05;;;;;;;10.07;9.57;;;24.50;69.90;;;;;;3550185;40;20490;-57
2021/05/14 12:54:34;;;;;;;9.00;8.50;;;24.60;70.10;;;;;;3557206;40;20900;-57
2021/05/14 12:57:02;;;;;;;9.50;8.90;;;24.60;70.10;;;;;;3558274;40;20484;-57